sensor_id;sensor_type;location;lat;lon;timestamp;P1;durP1;ratioP1;P2;durP2;ratioP2
59880;SDS011;45751;51.380;10.326;2022-11-15T00:00:07;15.50;;;7.90;;
59880;SDS011;45751;51.380;10.326;2022-11-15T00:02:55;16.50;;;7.22;;
59880;SDS011;45751;51.380;10.326;2022-11-15T00:05:46;16.90;;;7.65;;
59880;SDS011;45751;51.380;10.326;2022-11-15T00:08:31;14.18;;;6.95;;
59880;SDS011;45751;51.380;10.326;2022-11-15T00:11:19;12.73;;;6.57;;
59880;SDS011;45751;51.380;10.326;2022-11-15T00:14:04;15.27;;;5.80;;
59880;SDS011;45751;51.380;10.326;2022-11-15T00:16:51;10.55;;;5.22;;
59880;SDS011;45751;51.380;10.326;2022-11-15T00:19:37;13.10;;;5.47;;
59880;SDS011;45751;51.380;10.326;2022-11-15T00:22:31;11.95;;;5.63;;
59880;SDS011;45751;51.380;10.326;2022-11-15T00:25:19;12.57;;;6.70;;
59880;SDS011;45751;51.380;10.326;2022-11-15T00:28:04;11.15;;;5.60;;
59880;SDS011;45751;51.380;10.326;2022-11-15T00:30:53;13.48;;;5.38;;
59880;SDS011;45751;51.380;10.326;2022-11-15T00:33:42;12.38;;;5.30;;
59880;SDS011;45751;51.380;10.326;2022-11-15T00:36:34;11.13;;;5.10;;
59880;SDS011;45751;51.380;10.326;2022-11-15T00:39:20;14.32;;;6.35;;
59880;SDS011;45751;51.380;10.326;2022-11-15T00:42:09;13.90;;;7.18;;
59880;SDS011;45751;51.380;10.326;2022-11-15T00:44:54;12.07;;;4.88;;
59880;SDS011;45751;51.380;10.326;2022-11-15T00:47:43;12.07;;;6.25;;
59880;SDS011;45751;51.380;10.326;2022-11-15T00:50:30;12.05;;;5.03;;
59880;SDS011;45751;51.380;10.326;2022-11-15T00:53:18;13.93;;;5.90;;
59880;SDS011;45751;51.380;10.326;2022-11-15T00:56:03;9.02;;;4.43;;
59880;SDS011;45751;51.380;10.326;2022-11-15T00:58:52;12.18;;;5.13;;
59880;SDS011;45751;51.380;10.326;2022-11-15T01:01:37;12.63;;;5.35;;
59880;SDS011;45751;51.380;10.326;2022-11-15T01:04:22;10.73;;;4.40;;
59880;SDS011;45751;51.380;10.326;2022-11-15T01:07:08;12.55;;;4.55;;
59880;SDS011;45751;51.380;10.326;2022-11-15T01:09:56;9.98;;;4.43;;
59880;SDS011;45751;51.380;10.326;2022-11-15T01:12:41;10.43;;;5.00;;
59880;SDS011;45751;51.380;10.326;2022-11-15T01:15:27;12.00;;;4.40;;
59880;SDS011;45751;51.380;10.326;2022-11-15T01:18:12;13.80;;;5.38;;
59880;SDS011;45751;51.380;10.326;2022-11-15T01:21:04;11.80;;;5.80;;
59880;SDS011;45751;51.380;10.326;2022-11-15T01:23:55;12.68;;;4.97;;
59880;SDS011;45751;51.380;10.326;2022-11-15T01:26:43;11.05;;;5.78;;
59880;SDS011;45751;51.380;10.326;2022-11-15T01:29:30;13.27;;;6.05;;
59880;SDS011;45751;51.380;10.326;2022-11-15T01:32:15;17.25;;;7.53;;
59880;SDS011;45751;51.380;10.326;2022-11-15T01:35:02;15.65;;;7.80;;
59880;SDS011;45751;51.380;10.326;2022-11-15T01:37:47;14.70;;;7.22;;
59880;SDS011;45751;51.380;10.326;2022-11-15T01:40:33;16.55;;;6.30;;
59880;SDS011;45751;51.380;10.326;2022-11-15T01:43:19;16.45;;;7.57;;
59880;SDS011;45751;51.380;10.326;2022-11-15T01:46:33;14.30;;;6.47;;
59880;SDS011;45751;51.380;10.326;2022-11-15T01:49:21;16.38;;;5.90;;
59880;SDS011;45751;51.380;10.326;2022-11-15T01:52:13;11.05;;;4.95;;
59880;SDS011;45751;51.380;10.326;2022-11-15T01:55:07;13.27;;;5.32;;
59880;SDS011;45751;51.380;10.326;2022-11-15T01:58:02;12.48;;;5.93;;
59880;SDS011;45751;51.380;10.326;2022-11-15T02:00:50;9.85;;;4.68;;
59880;SDS011;45751;51.380;10.326;2022-11-15T02:03:42;10.30;;;5.30;;
59880;SDS011;45751;51.380;10.326;2022-11-15T02:06:47;10.43;;;4.85;;
59880;SDS011;45751;51.380;10.326;2022-11-15T02:09:36;11.73;;;6.35;;
59880;SDS011;45751;51.380;10.326;2022-11-15T02:12:23;15.57;;;8.18;;
59880;SDS011;45751;51.380;10.326;2022-11-15T02:15:08;12.05;;;7.53;;
59880;SDS011;45751;51.380;10.326;2022-11-15T02:27:15;11.85;;;5.60;;
59880;SDS011;45751;51.380;10.326;2022-11-15T02:30:29;10.40;;;4.55;;
59880;SDS011;45751;51.380;10.326;2022-11-15T02:33:59;9.80;;;3.75;;
59880;SDS011;45751;51.380;10.326;2022-11-15T02:42:54;8.80;;;3.72;;
59880;SDS011;45751;51.380;10.326;2022-11-15T02:46:12;9.05;;;3.85;;
59880;SDS011;45751;51.380;10.326;2022-11-15T02:49:07;12.75;;;4.68;;
59880;SDS011;45751;51.380;10.326;2022-11-15T02:51:56;9.15;;;3.85;;
59880;SDS011;45751;51.380;10.326;2022-11-15T02:54:41;8.32;;;3.40;;
59880;SDS011;45751;51.380;10.326;2022-11-15T03:00:47;11.48;;;3.97;;
59880;SDS011;45751;51.380;10.326;2022-11-15T03:06:42;10.13;;;3.40;;
59880;SDS011;45751;51.380;10.326;2022-11-15T03:10:06;10.02;;;3.65;;
59880;SDS011;45751;51.380;10.326;2022-11-15T03:13:09;9.80;;;3.42;;
59880;SDS011;45751;51.380;10.326;2022-11-15T03:19:17;7.57;;;3.17;;
59880;SDS011;45751;51.380;10.326;2022-11-15T03:22:12;11.43;;;3.22;;
59880;SDS011;45751;51.380;10.326;2022-11-15T03:25:04;11.50;;;3.75;;
59880;SDS011;45751;51.380;10.326;2022-11-15T03:27:55;11.15;;;4.03;;
59880;SDS011;45751;51.380;10.326;2022-11-15T03:30:48;8.80;;;3.90;;
59880;SDS011;45751;51.380;10.326;2022-11-15T03:33:36;8.38;;;3.67;;
59880;SDS011;45751;51.380;10.326;2022-11-15T03:36:23;10.52;;;3.42;;
59880;SDS011;45751;51.380;10.326;2022-11-15T03:39:12;10.30;;;4.50;;
59880;SDS011;45751;51.380;10.326;2022-11-15T03:44:58;11.60;;;3.90;;
59880;SDS011;45751;51.380;10.326;2022-11-15T03:47:58;11.50;;;4.30;;
59880;SDS011;45751;51.380;10.326;2022-11-15T03:50:50;8.85;;;3.03;;
59880;SDS011;45751;51.380;10.326;2022-11-15T03:53:37;9.02;;;3.88;;
59880;SDS011;45751;51.380;10.326;2022-11-15T03:56:24;8.40;;;3.50;;
59880;SDS011;45751;51.380;10.326;2022-11-15T03:59:11;9.00;;;3.65;;
59880;SDS011;45751;51.380;10.326;2022-11-15T04:01:59;7.78;;;3.33;;
59880;SDS011;45751;51.380;10.326;2022-11-15T04:04:44;7.57;;;3.30;;
59880;SDS011;45751;51.380;10.326;2022-11-15T04:07:32;8.80;;;3.53;;
59880;SDS011;45751;51.380;10.326;2022-11-15T04:10:20;9.85;;;3.88;;
59880;SDS011;45751;51.380;10.326;2022-11-15T04:13:08;9.82;;;3.08;;
59880;SDS011;45751;51.380;10.326;2022-11-15T04:15:58;8.43;;;3.65;;
59880;SDS011;45751;51.380;10.326;2022-11-15T04:18:45;12.10;;;3.97;;
59880;SDS011;45751;51.380;10.326;2022-11-15T04:21:54;9.98;;;3.47;;
59880;SDS011;45751;51.380;10.326;2022-11-15T04:25:00;8.00;;;3.20;;
59880;SDS011;45751;51.380;10.326;2022-11-15T04:27:47;11.65;;;3.92;;
59880;SDS011;45751;51.380;10.326;2022-11-15T04:30:33;8.68;;;3.28;;
59880;SDS011;45751;51.380;10.326;2022-11-15T04:33:18;7.70;;;3.22;;
59880;SDS011;45751;51.380;10.326;2022-11-15T04:36:06;8.95;;;3.00;;
59880;SDS011;45751;51.380;10.326;2022-11-15T04:39:11;8.90;;;3.75;;
59880;SDS011;45751;51.380;10.326;2022-11-15T04:42:01;8.05;;;4.07;;
59880;SDS011;45751;51.380;10.326;2022-11-15T04:44:48;8.75;;;3.25;;
59880;SDS011;45751;51.380;10.326;2022-11-15T04:47:35;8.43;;;3.80;;
59880;SDS011;45751;51.380;10.326;2022-11-15T04:50:20;8.73;;;3.85;;
59880;SDS011;45751;51.380;10.326;2022-11-15T04:53:07;7.57;;;3.15;;
59880;SDS011;45751;51.380;10.326;2022-11-15T04:55:54;8.93;;;3.72;;
59880;SDS011;45751;51.380;10.326;2022-11-15T04:58:41;9.93;;;3.30;;
59880;SDS011;45751;51.380;10.326;2022-11-15T05:01:29;7.53;;;3.10;;
59880;SDS011;45751;51.380;10.326;2022-11-15T05:04:14;9.85;;;3.15;;
59880;SDS011;45751;51.380;10.326;2022-11-15T05:07:05;12.88;;;3.40;;
59880;SDS011;45751;51.380;10.326;2022-11-15T05:09:51;7.75;;;2.75;;
59880;SDS011;45751;51.380;10.326;2022-11-15T05:12:40;7.30;;;3.42;;
59880;SDS011;45751;51.380;10.326;2022-11-15T05:15:26;8.82;;;3.25;;
59880;SDS011;45751;51.380;10.326;2022-11-15T05:18:15;7.95;;;3.80;;
59880;SDS011;45751;51.380;10.326;2022-11-15T05:21:12;8.60;;;3.30;;
59880;SDS011;45751;51.380;10.326;2022-11-15T05:24:02;9.68;;;4.00;;
59880;SDS011;45751;51.380;10.326;2022-11-15T05:26:48;8.88;;;3.30;;
59880;SDS011;45751;51.380;10.326;2022-11-15T05:29:38;8.02;;;2.95;;
59880;SDS011;45751;51.380;10.326;2022-11-15T05:32:23;9.13;;;3.88;;
59880;SDS011;45751;51.380;10.326;2022-11-15T05:35:18;10.30;;;3.38;;
59880;SDS011;45751;51.380;10.326;2022-11-15T05:38:11;9.35;;;3.85;;
59880;SDS011;45751;51.380;10.326;2022-11-15T05:41:01;8.65;;;3.38;;
59880;SDS011;45751;51.380;10.326;2022-11-15T05:43:50;8.88;;;3.67;;
59880;SDS011;45751;51.380;10.326;2022-11-15T05:46:36;10.25;;;4.07;;
59880;SDS011;45751;51.380;10.326;2022-11-15T05:49:26;9.90;;;4.22;;
59880;SDS011;45751;51.380;10.326;2022-11-15T05:52:16;11.95;;;4.10;;
59880;SDS011;45751;51.380;10.326;2022-11-15T05:55:09;8.65;;;3.38;;
59880;SDS011;45751;51.380;10.326;2022-11-15T05:57:54;9.02;;;3.70;;
59880;SDS011;45751;51.380;10.326;2022-11-15T06:00:42;10.45;;;4.22;;
59880;SDS011;45751;51.380;10.326;2022-11-15T06:03:30;9.50;;;4.25;;
59880;SDS011;45751;51.380;10.326;2022-11-15T06:06:16;9.38;;;4.55;;
59880;SDS011;45751;51.380;10.326;2022-11-15T06:09:05;10.25;;;4.50;;
59880;SDS011;45751;51.380;10.326;2022-11-15T06:11:52;10.95;;;4.65;;
59880;SDS011;45751;51.380;10.326;2022-11-15T06:14:40;9.88;;;4.15;;
59880;SDS011;45751;51.380;10.326;2022-11-15T06:17:25;13.70;;;4.75;;
59880;SDS011;45751;51.380;10.326;2022-11-15T06:20:15;10.05;;;4.35;;
59880;SDS011;45751;51.380;10.326;2022-11-15T06:23:03;8.73;;;3.80;;
59880;SDS011;45751;51.380;10.326;2022-11-15T06:25:51;9.82;;;3.72;;
59880;SDS011;45751;51.380;10.326;2022-11-15T06:28:37;10.30;;;4.25;;
59880;SDS011;45751;51.380;10.326;2022-11-15T06:31:26;11.98;;;3.50;;
59880;SDS011;45751;51.380;10.326;2022-11-15T06:34:11;11.57;;;3.63;;
59880;SDS011;45751;51.380;10.326;2022-11-15T06:36:58;10.82;;;4.28;;
59880;SDS011;45751;51.380;10.326;2022-11-15T06:39:43;16.52;;;4.10;;
59880;SDS011;45751;51.380;10.326;2022-11-15T06:42:30;11.85;;;4.13;;
59880;SDS011;45751;51.380;10.326;2022-11-15T06:45:16;10.50;;;4.00;;
59880;SDS011;45751;51.380;10.326;2022-11-15T06:48:05;10.02;;;3.70;;
59880;SDS011;45751;51.380;10.326;2022-11-15T06:50:55;8.77;;;3.47;;
59880;SDS011;45751;51.380;10.326;2022-11-15T06:53:44;11.18;;;4.47;;
59880;SDS011;45751;51.380;10.326;2022-11-15T06:56:29;9.15;;;3.80;;
59880;SDS011;45751;51.380;10.326;2022-11-15T06:59:18;12.88;;;4.38;;
59880;SDS011;45751;51.380;10.326;2022-11-15T07:02:03;9.95;;;4.32;;
59880;SDS011;45751;51.380;10.326;2022-11-15T07:04:50;10.82;;;3.95;;
59880;SDS011;45751;51.380;10.326;2022-11-15T07:07:35;9.40;;;4.15;;
59880;SDS011;45751;51.380;10.326;2022-11-15T07:10:24;14.43;;;3.70;;
59880;SDS011;45751;51.380;10.326;2022-11-15T07:13:09;11.10;;;4.00;;
59880;SDS011;45751;51.380;10.326;2022-11-15T07:16:03;11.60;;;4.30;;
59880;SDS011;45751;51.380;10.326;2022-11-15T07:18:49;9.38;;;3.67;;
59880;SDS011;45751;51.380;10.326;2022-11-15T07:21:37;11.50;;;4.45;;
59880;SDS011;45751;51.380;10.326;2022-11-15T07:24:24;11.38;;;4.78;;
59880;SDS011;45751;51.380;10.326;2022-11-15T07:27:11;12.88;;;5.78;;
59880;SDS011;45751;51.380;10.326;2022-11-15T07:29:57;12.23;;;5.35;;
59880;SDS011;45751;51.380;10.326;2022-11-15T07:32:45;10.07;;;4.47;;
59880;SDS011;45751;51.380;10.326;2022-11-15T07:35:31;9.05;;;4.28;;
59880;SDS011;45751;51.380;10.326;2022-11-15T07:38:16;8.80;;;3.95;;
59880;SDS011;45751;51.380;10.326;2022-11-15T07:41:07;7.50;;;3.33;;
59880;SDS011;45751;51.380;10.326;2022-11-15T07:43:52;7.57;;;3.13;;
59880;SDS011;45751;51.380;10.326;2022-11-15T07:46:39;9.60;;;3.30;;
59880;SDS011;45751;51.380;10.326;2022-11-15T07:49:25;8.88;;;3.45;;
59880;SDS011;45751;51.380;10.326;2022-11-15T07:52:12;8.70;;;4.03;;
59880;SDS011;45751;51.380;10.326;2022-11-15T07:55:01;9.77;;;4.35;;
59880;SDS011;45751;51.380;10.326;2022-11-15T07:57:46;10.15;;;4.70;;
59880;SDS011;45751;51.380;10.326;2022-11-15T08:00:33;9.52;;;4.30;;
59880;SDS011;45751;51.380;10.326;2022-11-15T08:03:24;17.05;;;9.15;;
59880;SDS011;45751;51.380;10.326;2022-11-15T08:06:09;13.43;;;6.05;;
59880;SDS011;45751;51.380;10.326;2022-11-15T08:08:57;11.40;;;5.05;;
59880;SDS011;45751;51.380;10.326;2022-11-15T08:11:42;11.10;;;4.38;;
59880;SDS011;45751;51.380;10.326;2022-11-15T08:14:30;10.60;;;4.35;;
59880;SDS011;45751;51.380;10.326;2022-11-15T08:17:17;10.05;;;4.55;;
59880;SDS011;45751;51.380;10.326;2022-11-15T08:20:04;10.27;;;4.25;;
59880;SDS011;45751;51.380;10.326;2022-11-15T08:22:50;9.95;;;4.20;;
59880;SDS011;45751;51.380;10.326;2022-11-15T08:25:37;10.30;;;4.53;;
59880;SDS011;45751;51.380;10.326;2022-11-15T08:28:23;9.98;;;4.40;;
59880;SDS011;45751;51.380;10.326;2022-11-15T08:31:14;12.63;;;5.85;;
59880;SDS011;45751;51.380;10.326;2022-11-15T08:34:04;20.58;;;6.32;;
59880;SDS011;45751;51.380;10.326;2022-11-15T08:36:52;13.40;;;6.47;;
59880;SDS011;45751;51.380;10.326;2022-11-15T08:39:37;12.68;;;5.07;;
59880;SDS011;45751;51.380;10.326;2022-11-15T08:42:26;11.95;;;3.90;;
59880;SDS011;45751;51.380;10.326;2022-11-15T08:45:13;8.27;;;3.60;;
59880;SDS011;45751;51.380;10.326;2022-11-15T08:48:01;9.52;;;4.20;;
59880;SDS011;45751;51.380;10.326;2022-11-15T08:50:56;10.43;;;4.20;;
59880;SDS011;45751;51.380;10.326;2022-11-15T08:53:42;10.02;;;3.70;;
59880;SDS011;45751;51.380;10.326;2022-11-15T08:56:29;10.40;;;3.58;;
59880;SDS011;45751;51.380;10.326;2022-11-15T08:59:15;9.57;;;4.68;;
59880;SDS011;45751;51.380;10.326;2022-11-15T09:02:02;15.48;;;4.90;;
59880;SDS011;45751;51.380;10.326;2022-11-15T09:04:48;19.48;;;8.27;;
59880;SDS011;45751;51.380;10.326;2022-11-15T09:07:35;27.15;;;12.48;;
59880;SDS011;45751;51.380;10.326;2022-11-15T09:10:22;14.07;;;6.40;;
59880;SDS011;45751;51.380;10.326;2022-11-15T09:13:11;9.65;;;3.97;;
59880;SDS011;45751;51.380;10.326;2022-11-15T09:15:57;9.95;;;4.50;;
59880;SDS011;45751;51.380;10.326;2022-11-15T09:18:45;15.30;;;4.45;;
59880;SDS011;45751;51.380;10.326;2022-11-15T09:21:31;10.30;;;4.43;;
59880;SDS011;45751;51.380;10.326;2022-11-15T09:24:20;11.93;;;4.82;;
59880;SDS011;45751;51.380;10.326;2022-11-15T09:27:05;11.23;;;5.50;;
59880;SDS011;45751;51.380;10.326;2022-11-15T09:29:53;14.00;;;4.57;;
59880;SDS011;45751;51.380;10.326;2022-11-15T09:32:38;11.10;;;4.47;;
59880;SDS011;45751;51.380;10.326;2022-11-15T09:35:27;7.90;;;3.58;;
59880;SDS011;45751;51.380;10.326;2022-11-15T09:38:12;8.68;;;3.25;;
59880;SDS011;45751;51.380;10.326;2022-11-15T09:41:16;9.23;;;4.57;;
59880;SDS011;45751;51.380;10.326;2022-11-15T09:44:38;10.02;;;4.13;;
59880;SDS011;45751;51.380;10.326;2022-11-15T09:51:04;10.55;;;3.70;;
59880;SDS011;45751;51.380;10.326;2022-11-15T09:56:26;7.95;;;2.70;;
59880;SDS011;45751;51.380;10.326;2022-11-15T10:04:07;7.65;;;3.05;;
59880;SDS011;45751;51.380;10.326;2022-11-15T10:06:38;8.95;;;3.45;;
59880;SDS011;45751;51.380;10.326;2022-11-15T10:11:50;14.07;;;4.97;;
59880;SDS011;45751;51.380;10.326;2022-11-15T10:14:21;10.27;;;4.82;;
59880;SDS011;45751;51.380;10.326;2022-11-15T10:27:30;16.23;;;5.78;;
59880;SDS011;45751;51.380;10.326;2022-11-15T10:29:57;13.35;;;5.47;;
59880;SDS011;45751;51.380;10.326;2022-11-15T10:32:26;8.85;;;3.55;;
59880;SDS011;45751;51.380;10.326;2022-11-15T10:34:53;9.88;;;3.30;;
59880;SDS011;45751;51.380;10.326;2022-11-15T10:37:28;9.30;;;3.33;;
59880;SDS011;45751;51.380;10.326;2022-11-15T10:40:13;10.88;;;3.92;;
59880;SDS011;45751;51.380;10.326;2022-11-15T10:42:45;12.57;;;4.35;;
59880;SDS011;45751;51.380;10.326;2022-11-15T10:45:27;12.45;;;4.65;;
59880;SDS011;45751;51.380;10.326;2022-11-15T10:50:45;10.25;;;2.92;;
59880;SDS011;45751;51.380;10.326;2022-11-15T10:55:54;8.77;;;2.80;;
59880;SDS011;45751;51.380;10.326;2022-11-15T10:58:33;11.02;;;3.20;;
59880;SDS011;45751;51.380;10.326;2022-11-15T11:03:38;8.57;;;3.13;;
59880;SDS011;45751;51.380;10.326;2022-11-15T11:06:15;8.02;;;2.95;;
59880;SDS011;45751;51.380;10.326;2022-11-15T11:08:58;7.47;;;2.90;;
59880;SDS011;45751;51.380;10.326;2022-11-15T11:14:24;8.93;;;3.08;;
59880;SDS011;45751;51.380;10.326;2022-11-15T11:16:55;8.60;;;3.30;;
59880;SDS011;45751;51.380;10.326;2022-11-15T11:30:47;14.95;;;4.60;;
59880;SDS011;45751;51.380;10.326;2022-11-15T11:36:21;9.93;;;3.70;;
59880;SDS011;45751;51.380;10.326;2022-11-15T11:39:00;7.88;;;2.83;;
59880;SDS011;45751;51.380;10.326;2022-11-15T11:42:17;7.55;;;3.08;;
59880;SDS011;45751;51.380;10.326;2022-11-15T11:47:57;11.13;;;3.13;;
59880;SDS011;45751;51.380;10.326;2022-11-15T11:50:41;7.38;;;2.47;;
59880;SDS011;45751;51.380;10.326;2022-11-15T11:53:12;10.65;;;2.53;;
59880;SDS011;45751;51.380;10.326;2022-11-15T11:55:44;9.98;;;2.85;;
59880;SDS011;45751;51.380;10.326;2022-11-15T11:58:17;10.20;;;3.70;;
59880;SDS011;45751;51.380;10.326;2022-11-15T12:01:41;12.18;;;3.90;;
59880;SDS011;45751;51.380;10.326;2022-11-15T12:06:38;9.52;;;3.30;;
59880;SDS011;45751;51.380;10.326;2022-11-15T12:09:19;9.75;;;2.60;;
59880;SDS011;45751;51.380;10.326;2022-11-15T12:11:55;9.45;;;2.97;;
59880;SDS011;45751;51.380;10.326;2022-11-15T12:17:02;9.07;;;3.00;;
59880;SDS011;45751;51.380;10.326;2022-11-15T12:19:31;14.77;;;6.55;;
59880;SDS011;45751;51.380;10.326;2022-11-15T12:25:15;12.70;;;5.22;;
59880;SDS011;45751;51.380;10.326;2022-11-15T12:28:03;9.32;;;3.15;;
59880;SDS011;45751;51.380;10.326;2022-11-15T12:33:55;8.52;;;3.00;;
59880;SDS011;45751;51.380;10.326;2022-11-15T12:36:34;8.30;;;3.00;;
59880;SDS011;45751;51.380;10.326;2022-11-15T12:39:08;7.07;;;2.70;;
59880;SDS011;45751;51.380;10.326;2022-11-15T12:44:13;11.20;;;3.38;;
59880;SDS011;45751;51.380;10.326;2022-11-15T12:52:06;7.72;;;3.30;;
59880;SDS011;45751;51.380;10.326;2022-11-15T13:07:56;10.00;;;3.33;;
59880;SDS011;45751;51.380;10.326;2022-11-15T13:12:56;8.25;;;3.10;;
59880;SDS011;45751;51.380;10.326;2022-11-15T13:15:53;8.18;;;3.20;;
59880;SDS011;45751;51.380;10.326;2022-11-15T13:18:29;13.55;;;5.72;;
59880;SDS011;45751;51.380;10.326;2022-11-15T13:21:01;45.17;;;25.55;;
59880;SDS011;45751;51.380;10.326;2022-11-15T13:23:53;32.67;;;16.95;;
59880;SDS011;45751;51.380;10.326;2022-11-15T13:26:21;13.25;;;6.07;;
59880;SDS011;45751;51.380;10.326;2022-11-15T13:28:51;9.25;;;3.40;;
59880;SDS011;45751;51.380;10.326;2022-11-15T13:31:26;7.45;;;2.60;;
59880;SDS011;45751;51.380;10.326;2022-11-15T13:34:20;7.50;;;2.60;;
59880;SDS011;45751;51.380;10.326;2022-11-15T13:37:12;8.10;;;2.90;;
59880;SDS011;45751;51.380;10.326;2022-11-15T13:39:55;6.93;;;2.75;;
59880;SDS011;45751;51.380;10.326;2022-11-15T13:42:47;7.80;;;3.20;;
59880;SDS011;45751;51.380;10.326;2022-11-15T13:45:15;28.33;;;14.52;;
59880;SDS011;45751;51.380;10.326;2022-11-15T13:47:56;32.22;;;15.98;;
59880;SDS011;45751;51.380;10.326;2022-11-15T13:50:25;13.35;;;5.90;;
59880;SDS011;45751;51.380;10.326;2022-11-15T13:53:01;9.13;;;3.45;;
59880;SDS011;45751;51.380;10.326;2022-11-15T13:55:30;10.68;;;3.78;;
59880;SDS011;45751;51.380;10.326;2022-11-15T13:58:01;7.53;;;3.22;;
59880;SDS011;45751;51.380;10.326;2022-11-15T14:00:36;6.82;;;2.53;;
59880;SDS011;45751;51.380;10.326;2022-11-15T14:03:26;11.13;;;3.13;;
59880;SDS011;45751;51.380;10.326;2022-11-15T14:08:41;13.80;;;6.05;;
59880;SDS011;45751;51.380;10.326;2022-11-15T14:11:23;14.20;;;4.95;;
59880;SDS011;45751;51.380;10.326;2022-11-15T14:14:04;12.63;;;4.25;;
59880;SDS011;45751;51.380;10.326;2022-11-15T14:16:36;7.20;;;2.80;;
59880;SDS011;45751;51.380;10.326;2022-11-15T14:19:09;10.50;;;3.35;;
59880;SDS011;45751;51.380;10.326;2022-11-15T14:22:07;8.13;;;3.00;;
59880;SDS011;45751;51.380;10.326;2022-11-15T14:24:36;7.75;;;3.25;;
59880;SDS011;45751;51.380;10.326;2022-11-15T14:29:52;8.70;;;3.15;;
59880;SDS011;45751;51.380;10.326;2022-11-15T14:32:22;6.93;;;2.40;;
59880;SDS011;45751;51.380;10.326;2022-11-15T14:34:56;8.02;;;2.92;;
59880;SDS011;45751;51.380;10.326;2022-11-15T14:37:29;10.38;;;2.90;;
59880;SDS011;45751;51.380;10.326;2022-11-15T14:40:02;8.35;;;2.90;;
59880;SDS011;45751;51.380;10.326;2022-11-15T14:42:32;8.88;;;2.67;;
59880;SDS011;45751;51.380;10.326;2022-11-15T14:44:59;8.90;;;3.25;;
59880;SDS011;45751;51.380;10.326;2022-11-15T14:47:25;7.88;;;2.88;;
59880;SDS011;45751;51.380;10.326;2022-11-15T14:49:55;7.47;;;2.83;;
59880;SDS011;45751;51.380;10.326;2022-11-15T14:52:23;13.02;;;3.53;;
59880;SDS011;45751;51.380;10.326;2022-11-15T14:55:00;7.50;;;2.58;;
59880;SDS011;45751;51.380;10.326;2022-11-15T14:57:38;9.20;;;3.28;;
59880;SDS011;45751;51.380;10.326;2022-11-15T15:00:05;8.73;;;2.65;;
59880;SDS011;45751;51.380;10.326;2022-11-15T15:02:38;10.48;;;3.38;;
59880;SDS011;45751;51.380;10.326;2022-11-15T15:07:45;10.27;;;4.03;;
59880;SDS011;45751;51.380;10.326;2022-11-15T15:10:14;9.95;;;3.75;;
59880;SDS011;45751;51.380;10.326;2022-11-15T15:13:04;11.70;;;3.60;;
59880;SDS011;45751;51.380;10.326;2022-11-15T15:15:33;9.20;;;3.50;;
59880;SDS011;45751;51.380;10.326;2022-11-15T15:18:04;10.68;;;3.80;;
59880;SDS011;45751;51.380;10.326;2022-11-15T15:20:31;12.77;;;3.60;;
59880;SDS011;45751;51.380;10.326;2022-11-15T15:23:01;10.65;;;3.55;;
59880;SDS011;45751;51.380;10.326;2022-11-15T15:25:33;10.32;;;3.45;;
59880;SDS011;45751;51.380;10.326;2022-11-15T15:28:03;10.95;;;3.80;;
59880;SDS011;45751;51.380;10.326;2022-11-15T15:30:30;11.52;;;3.72;;
59880;SDS011;45751;51.380;10.326;2022-11-15T15:32:58;10.32;;;3.80;;
59880;SDS011;45751;51.380;10.326;2022-11-15T15:35:29;11.77;;;4.22;;
59880;SDS011;45751;51.380;10.326;2022-11-15T15:38:00;10.85;;;4.25;;
59880;SDS011;45751;51.380;10.326;2022-11-15T15:40:28;10.38;;;3.97;;
59880;SDS011;45751;51.380;10.326;2022-11-15T15:42:58;10.43;;;4.55;;
59880;SDS011;45751;51.380;10.326;2022-11-15T15:45:25;10.05;;;3.50;;
59880;SDS011;45751;51.380;10.326;2022-11-15T15:47:55;11.50;;;4.00;;
59880;SDS011;45751;51.380;10.326;2022-11-15T15:50:26;9.30;;;4.10;;
59880;SDS011;45751;51.380;10.326;2022-11-15T15:53:01;9.38;;;3.33;;
59880;SDS011;45751;51.380;10.326;2022-11-15T15:55:32;11.32;;;4.25;;
59880;SDS011;45751;51.380;10.326;2022-11-15T15:58:00;9.23;;;3.53;;
59880;SDS011;45751;51.380;10.326;2022-11-15T16:00:28;11.60;;;4.03;;
59880;SDS011;45751;51.380;10.326;2022-11-15T16:02:57;10.25;;;4.47;;
59880;SDS011;45751;51.380;10.326;2022-11-15T16:05:24;8.18;;;3.20;;
59880;SDS011;45751;51.380;10.326;2022-11-15T16:07:51;8.27;;;3.60;;
59880;SDS011;45751;51.380;10.326;2022-11-15T16:10:22;8.25;;;2.70;;
59880;SDS011;45751;51.380;10.326;2022-11-15T16:12:55;10.75;;;3.88;;
59880;SDS011;45751;51.380;10.326;2022-11-15T16:15:24;11.57;;;4.60;;
59880;SDS011;45751;51.380;10.326;2022-11-15T16:17:56;10.25;;;4.28;;
59880;SDS011;45751;51.380;10.326;2022-11-15T16:22:57;10.95;;;3.90;;
59880;SDS011;45751;51.380;10.326;2022-11-15T16:25:42;10.10;;;4.13;;
59880;SDS011;45751;51.380;10.326;2022-11-15T16:30:46;10.88;;;4.70;;
59880;SDS011;45751;51.380;10.326;2022-11-15T16:33:23;13.02;;;6.18;;
59880;SDS011;45751;51.380;10.326;2022-11-15T16:35:50;12.68;;;5.20;;
59880;SDS011;45751;51.380;10.326;2022-11-15T16:38:16;11.48;;;4.20;;
59880;SDS011;45751;51.380;10.326;2022-11-15T16:40:44;9.95;;;4.78;;
59880;SDS011;45751;51.380;10.326;2022-11-15T16:43:15;12.90;;;4.75;;
59880;SDS011;45751;51.380;10.326;2022-11-15T16:45:42;15.70;;;5.47;;
59880;SDS011;45751;51.380;10.326;2022-11-15T16:48:20;15.07;;;5.97;;
59880;SDS011;45751;51.380;10.326;2022-11-15T16:50:55;13.73;;;6.47;;
59880;SDS011;45751;51.380;10.326;2022-11-15T16:53:24;14.43;;;5.53;;
59880;SDS011;45751;51.380;10.326;2022-11-15T16:55:51;12.65;;;4.72;;
59880;SDS011;45751;51.380;10.326;2022-11-15T16:58:19;11.65;;;5.18;;
59880;SDS011;45751;51.380;10.326;2022-11-15T17:00:50;14.60;;;6.18;;
59880;SDS011;45751;51.380;10.326;2022-11-15T17:03:19;23.10;;;11.75;;
59880;SDS011;45751;51.380;10.326;2022-11-15T17:05:47;25.27;;;10.95;;
59880;SDS011;45751;51.380;10.326;2022-11-15T17:08:14;16.10;;;8.02;;
59880;SDS011;45751;51.380;10.326;2022-11-15T17:10:41;10.85;;;5.22;;
59880;SDS011;45751;51.380;10.326;2022-11-15T17:13:11;12.40;;;5.53;;
59880;SDS011;45751;51.380;10.326;2022-11-15T17:15:39;11.15;;;5.15;;
59880;SDS011;45751;51.380;10.326;2022-11-15T17:18:09;14.15;;;4.85;;
59880;SDS011;45751;51.380;10.326;2022-11-15T17:20:39;12.38;;;4.90;;
59880;SDS011;45751;51.380;10.326;2022-11-15T17:23:14;15.60;;;6.13;;
59880;SDS011;45751;51.380;10.326;2022-11-15T17:25:43;16.02;;;5.50;;
59880;SDS011;45751;51.380;10.326;2022-11-15T17:28:10;13.70;;;5.38;;
59880;SDS011;45751;51.380;10.326;2022-11-15T17:30:42;10.77;;;4.25;;
59880;SDS011;45751;51.380;10.326;2022-11-15T17:33:10;14.35;;;6.32;;
59880;SDS011;45751;51.380;10.326;2022-11-15T17:35:38;11.10;;;5.63;;
59880;SDS011;45751;51.380;10.326;2022-11-15T17:38:05;13.15;;;5.38;;
59880;SDS011;45751;51.380;10.326;2022-11-15T17:40:35;11.90;;;5.10;;
59880;SDS011;45751;51.380;10.326;2022-11-15T17:43:03;13.15;;;5.40;;
59880;SDS011;45751;51.380;10.326;2022-11-15T17:45:31;12.77;;;5.05;;
59880;SDS011;45751;51.380;10.326;2022-11-15T17:48:01;13.63;;;5.97;;
59880;SDS011;45751;51.380;10.326;2022-11-15T17:50:28;15.68;;;5.70;;
59880;SDS011;45751;51.380;10.326;2022-11-15T17:52:54;11.63;;;5.22;;
59880;SDS011;45751;51.380;10.326;2022-11-15T17:55:24;11.80;;;5.95;;
59880;SDS011;45751;51.380;10.326;2022-11-15T17:57:51;12.52;;;5.82;;
59880;SDS011;45751;51.380;10.326;2022-11-15T18:00:18;11.63;;;5.07;;
59880;SDS011;45751;51.380;10.326;2022-11-15T18:02:48;12.60;;;5.60;;